createdAt,value
2022-09-06T00:00:09.474Z,1.97
2022-09-06T00:02:42.104Z,2.10
2022-09-06T00:05:11.243Z,1.80
2022-09-06T00:07:39.606Z,1.60
2022-09-06T00:10:08.372Z,1.90
2022-09-06T00:12:36.656Z,1.80
2022-09-06T00:15:05.640Z,1.83
2022-09-06T00:17:34.179Z,1.80
2022-09-06T00:20:04.684Z,1.97
2022-09-06T00:22:32.945Z,1.90
2022-09-06T00:25:01.154Z,2.00
2022-09-06T00:27:29.418Z,1.80
2022-09-06T00:29:57.618Z,1.90
2022-09-06T00:32:25.871Z,1.80
2022-09-06T00:34:54.040Z,1.70
2022-09-06T00:37:23.565Z,1.90
2022-09-06T00:39:51.751Z,1.50
2022-09-06T00:42:19.968Z,1.73
2022-09-06T00:44:48.177Z,1.80
2022-09-06T00:47:16.454Z,1.80
2022-09-06T00:49:47.431Z,1.87
2022-09-06T00:52:17.109Z,1.73
2022-09-06T00:54:46.899Z,1.90
2022-09-06T00:57:15.652Z,1.57
2022-09-06T00:59:43.799Z,1.70
2022-09-06T01:02:12.255Z,1.70
2022-09-06T01:04:43.103Z,1.80
2022-09-06T01:07:16.445Z,2.00
2022-09-06T01:09:58.004Z,1.50
2022-09-06T01:12:35.593Z,1.80
2022-09-06T01:15:12.531Z,1.80
2022-09-06T01:17:51.530Z,1.73
2022-09-06T01:20:52.018Z,1.90
2022-09-06T01:24:14.502Z,1.77
2022-09-06T01:27:35.166Z,1.80
2022-09-06T01:30:08.944Z,1.70
2022-09-06T01:32:43.151Z,1.53
2022-09-06T01:35:18.748Z,1.80
2022-09-06T01:37:48.041Z,1.77
2022-09-06T01:40:16.409Z,1.80
2022-09-06T01:42:44.636Z,2.53
2022-09-06T01:45:16.365Z,2.50
2022-09-06T01:47:51.234Z,3.07
2022-09-06T01:50:59.791Z,2.77
2022-09-06T01:53:48.889Z,2.53
2022-09-06T01:56:23.526Z,2.70
2022-09-06T01:59:31.768Z,2.60
2022-09-06T02:02:05.076Z,2.60
2022-09-06T02:04:37.328Z,2.50
2022-09-06T02:07:10.600Z,2.70
2022-09-06T02:09:41.053Z,2.40
2022-09-06T02:12:09.646Z,2.77
2022-09-06T02:14:40.388Z,2.40
2022-09-06T02:17:10.693Z,2.50
2022-09-06T02:19:41.080Z,2.57
2022-09-06T02:22:11.438Z,2.87
2022-09-06T02:24:40.695Z,2.30
2022-09-06T02:27:08.982Z,2.20
2022-09-06T02:29:37.175Z,2.30
2022-09-06T02:32:31.615Z,2.30
2022-09-06T02:34:59.818Z,2.10
2022-09-06T02:37:28.008Z,2.40
2022-09-06T02:39:56.417Z,2.10
2022-09-06T02:42:24.757Z,2.10
2022-09-06T02:44:52.967Z,2.30
2022-09-06T02:47:21.158Z,2.13
2022-09-06T02:49:50.697Z,2.20
2022-09-06T02:52:18.824Z,2.27
2022-09-06T02:54:47.080Z,2.40
2022-09-06T02:57:15.256Z,2.20
2022-09-06T02:59:43.463Z,1.93
2022-09-06T03:02:11.619Z,2.23
2022-09-06T03:04:39.877Z,2.10
2022-09-06T03:07:09.420Z,2.13
2022-09-06T03:09:37.652Z,2.27
2022-09-06T03:12:06.238Z,2.17
2022-09-06T03:14:35.993Z,2.07
2022-09-06T03:17:04.560Z,2.10
2022-09-06T03:19:32.866Z,1.90
2022-09-06T03:22:01.102Z,2.60
2022-09-06T03:24:30.691Z,2.30
2022-09-06T03:26:58.906Z,2.00
2022-09-06T03:29:27.187Z,2.03
2022-09-06T03:31:55.421Z,2.20
2022-09-06T03:34:23.599Z,2.23
2022-09-06T03:36:51.744Z,2.17
2022-09-06T03:39:21.222Z,1.87
2022-09-06T03:41:50.830Z,2.13
2022-09-06T03:44:19.050Z,2.23
2022-09-06T03:46:47.312Z,2.20
2022-09-06T03:49:15.540Z,2.30
2022-09-06T03:51:43.706Z,2.20
2022-09-06T03:54:11.887Z,2.20
2022-09-06T03:56:40.136Z,2.03
2022-09-06T03:59:09.698Z,2.40
2022-09-06T04:01:37.927Z,2.47
2022-09-06T04:04:06.166Z,2.07
2022-09-06T04:06:34.331Z,2.40
2022-09-06T04:09:02.541Z,2.40
2022-09-06T04:11:30.706Z,2.30
2022-09-06T04:13:58.875Z,2.10
2022-09-06T04:16:28.550Z,2.27
2022-09-06T04:18:59.951Z,2.10
2022-09-06T04:21:28.195Z,2.23
2022-09-06T04:23:56.644Z,2.30
2022-09-06T04:26:24.861Z,2.20
2022-09-06T04:28:53.125Z,2.20
2022-09-06T04:31:21.310Z,1.93
2022-09-06T04:33:50.884Z,2.17
2022-09-06T04:36:19.024Z,2.33
2022-09-06T04:38:47.424Z,2.20
2022-09-06T04:41:17.191Z,2.17
2022-09-06T04:43:45.454Z,2.20
2022-09-06T04:46:20.060Z,2.07
2022-09-06T04:48:49.790Z,2.17
2022-09-06T04:51:17.998Z,2.13
2022-09-06T04:53:46.243Z,2.10
2022-09-06T04:56:17.012Z,2.40
2022-09-06T04:58:45.756Z,2.30
2022-09-06T05:01:14.024Z,2.03
2022-09-06T05:03:42.238Z,2.17
2022-09-06T05:06:13.125Z,2.10
2022-09-06T05:08:41.979Z,2.20
2022-09-06T05:11:10.953Z,2.17
2022-09-06T05:13:39.360Z,1.97
2022-09-06T05:16:08.988Z,2.17
2022-09-06T05:18:37.533Z,2.13
2022-09-06T05:21:06.158Z,2.60
2022-09-06T05:23:35.836Z,2.17
2022-09-06T05:26:04.377Z,2.13
2022-09-06T05:28:32.597Z,2.10
2022-09-06T05:31:08.876Z,2.00
2022-09-06T05:33:37.023Z,2.20
2022-09-06T05:36:05.955Z,2.20
2022-09-06T05:38:35.453Z,2.43
2022-09-06T05:41:03.647Z,2.57
2022-09-06T05:43:31.840Z,2.50
2022-09-06T05:46:00.214Z,2.80
2022-09-06T05:48:29.754Z,2.40
2022-09-06T05:51:03.671Z,2.33
2022-09-06T05:53:37.926Z,2.30
2022-09-06T05:56:06.682Z,2.77
2022-09-06T05:58:34.933Z,2.30
2022-09-06T06:01:16.213Z,2.50
2022-09-06T06:03:44.869Z,2.27
2022-09-06T06:06:13.043Z,2.70
2022-09-06T06:08:42.794Z,2.77
2022-09-06T06:11:11.011Z,2.70
2022-09-06T06:13:39.707Z,2.80
2022-09-06T06:16:08.416Z,3.40
2022-09-06T06:18:36.835Z,2.33
2022-09-06T06:21:10.275Z,2.30
2022-09-06T06:23:38.478Z,2.30
2022-09-06T06:26:08.802Z,2.50
2022-09-06T06:28:37.307Z,3.63
2022-09-06T06:31:05.914Z,3.70
2022-09-06T06:33:36.207Z,3.80
2022-09-06T06:36:06.867Z,4.63
2022-09-06T06:38:36.211Z,3.80
2022-09-06T06:41:06.803Z,4.10
2022-09-06T06:43:37.739Z,3.40
2022-09-06T06:46:06.496Z,4.00
2022-09-06T06:48:34.892Z,4.00
2022-09-06T06:51:03.406Z,4.37
2022-09-06T06:53:32.727Z,4.90
2022-09-06T06:56:01.354Z,4.30
2022-09-06T06:58:30.185Z,4.43
2022-09-06T07:00:59.942Z,3.97
2022-09-06T07:03:28.242Z,4.20
2022-09-06T07:06:12.655Z,4.50
2022-09-06T07:08:41.572Z,4.20
2022-09-06T07:11:10.927Z,4.03
2022-09-06T07:13:39.183Z,4.13
2022-09-06T07:16:15.077Z,3.80
2022-09-06T07:18:43.689Z,4.30
2022-09-06T07:24:09.012Z,3.80
2022-09-06T07:26:39.165Z,4.50
2022-09-06T07:29:08.357Z,4.77
2022-09-06T07:34:27.284Z,4.20
2022-09-06T07:36:55.690Z,4.23
2022-09-06T07:39:24.055Z,4.00
2022-09-06T07:41:52.341Z,3.90
2022-09-06T07:44:20.604Z,4.27
2022-09-06T07:46:52.680Z,4.43
2022-09-06T07:49:21.024Z,3.77
2022-09-06T07:51:49.318Z,4.20
2022-09-06T07:54:33.054Z,4.07
2022-09-06T07:57:01.233Z,3.97
2022-09-06T07:59:29.468Z,4.43
2022-09-06T08:01:59.153Z,4.10
2022-09-06T08:04:27.356Z,3.60
2022-09-06T08:09:45.397Z,3.77
2022-09-06T08:12:13.663Z,4.43
2022-09-06T08:14:41.904Z,4.43
2022-09-06T08:17:11.456Z,4.20
2022-09-06T08:19:52.202Z,4.10
2022-09-06T08:22:26.842Z,4.10
2022-09-06T08:24:55.059Z,4.30
2022-09-06T08:27:23.273Z,4.03
2022-09-06T08:29:51.486Z,3.90
2022-09-06T08:32:21.118Z,3.63
2022-09-06T08:34:49.641Z,3.77
2022-09-06T08:37:20.934Z,4.20
2022-09-06T08:39:51.343Z,3.70
2022-09-06T08:42:19.624Z,3.70
2022-09-06T08:44:58.293Z,4.00
2022-09-06T08:47:28.609Z,4.17
2022-09-06T08:49:57.916Z,3.90
2022-09-06T08:53:15.752Z,4.43
2022-09-06T08:55:42.445Z,4.00
2022-09-06T08:58:38.857Z,3.87
2022-09-06T09:01:09.573Z,3.53
2022-09-06T09:03:40.211Z,3.27
2022-09-06T09:06:10.100Z,3.07
2022-09-06T09:08:44.255Z,3.53
2022-09-06T09:11:16.395Z,3.30
2022-09-06T09:13:55.484Z,3.07
2022-09-06T09:16:24.330Z,2.80
2022-09-06T09:18:55.926Z,3.20
2022-09-06T09:21:30.493Z,3.27
2022-09-06T09:24:04.263Z,2.90
2022-09-06T09:26:36.690Z,3.10
2022-09-06T09:29:07.337Z,3.57
2022-09-06T09:31:37.261Z,3.30
2022-09-06T09:34:07.036Z,3.60
2022-09-06T09:36:35.201Z,3.50
2022-09-06T09:39:03.497Z,3.30
2022-09-06T09:41:33.601Z,3.00
2022-09-06T09:44:04.897Z,2.50
2022-09-06T09:46:34.024Z,2.80
2022-09-06T09:49:06.957Z,2.80
2022-09-06T09:51:38.190Z,2.93
2022-09-06T09:54:07.739Z,3.00
2022-09-06T09:56:43.447Z,2.73
2022-09-06T09:59:22.111Z,2.73
2022-09-06T10:01:50.600Z,2.83
2022-09-06T10:07:13.111Z,3.87
2022-09-06T10:09:42.379Z,3.60
2022-09-06T10:12:16.312Z,3.47
2022-09-06T10:14:45.840Z,3.30
2022-09-06T10:17:22.428Z,3.33
2022-09-06T10:19:51.923Z,3.20
2022-09-06T10:22:44.841Z,2.90
2022-09-06T10:25:39.511Z,2.40
2022-09-06T10:28:32.861Z,2.60
2022-09-06T10:31:38.016Z,3.10
2022-09-06T10:34:26.936Z,3.20
2022-09-06T10:37:04.056Z,3.20
2022-09-06T10:39:40.305Z,3.27
2022-09-06T10:42:14.703Z,3.00
2022-09-06T10:44:57.149Z,2.97
2022-09-06T10:47:27.967Z,2.30
2022-09-06T10:49:57.180Z,2.57
2022-09-06T10:52:29.096Z,3.13
2022-09-06T10:55:02.121Z,3.10
2022-09-06T11:00:22.589Z,2.50
2022-09-06T11:05:45.767Z,2.10
2022-09-06T11:11:18.133Z,2.47
2022-09-06T11:13:47.205Z,2.60
2022-09-06T11:16:19.200Z,2.53
2022-09-06T11:18:50.489Z,2.47
2022-09-06T11:21:50.917Z,2.80
2022-09-06T11:24:26.580Z,2.70
2022-09-06T11:27:01.931Z,2.50
2022-09-06T11:29:30.945Z,2.60
2022-09-06T11:32:16.620Z,2.80
2022-09-06T11:34:53.088Z,2.60
2022-09-06T11:37:26.867Z,2.57
2022-09-06T11:43:19.566Z,2.40
2022-09-06T11:45:50.364Z,2.20
2022-09-06T11:49:02.392Z,2.40
2022-09-06T11:51:38.848Z,2.20
2022-09-06T11:54:33.447Z,2.33
2022-09-06T11:57:11.751Z,2.50
2022-09-06T11:59:52.511Z,2.10
2022-09-06T12:02:38.338Z,2.60
2022-09-06T12:05:19.665Z,2.05
2022-09-06T12:08:24.762Z,2.35
2022-09-06T12:11:30.348Z,2.10
2022-09-06T12:14:03.918Z,2.03
2022-09-06T12:17:28.614Z,2.00
2022-09-06T12:20:07.117Z,2.17
2022-09-06T12:23:01.680Z,2.00
2022-09-06T12:25:56.350Z,1.97
2022-09-06T12:28:34.769Z,2.00
2022-09-06T12:31:25.485Z,1.80
2022-09-06T12:33:54.837Z,2.30
2022-09-06T12:36:29.793Z,2.13
2022-09-06T12:39:00.037Z,2.30
2022-09-06T12:41:29.679Z,2.50
2022-09-06T12:43:59.906Z,2.70
2022-09-06T12:46:29.849Z,2.25
2022-09-06T12:49:08.125Z,2.20
2022-09-06T12:51:48.837Z,2.25
2022-09-06T12:54:23.293Z,1.98
2022-09-06T12:56:54.609Z,2.40
2022-09-06T12:59:27.354Z,2.40
2022-09-06T13:02:06.359Z,2.47
2022-09-06T13:04:39.764Z,2.28
2022-09-06T13:07:14.188Z,2.33
2022-09-06T13:09:48.624Z,2.28
2022-09-06T13:12:27.917Z,2.05
2022-09-06T13:15:13.314Z,1.80
2022-09-06T13:17:43.373Z,2.25
2022-09-06T13:20:15.718Z,1.90
2022-09-06T13:22:46.135Z,2.22
2022-09-06T13:25:20.458Z,2.25
2022-09-06T13:27:51.045Z,2.20
2022-09-06T13:30:38.062Z,2.50
2022-09-06T13:33:08.571Z,2.10
2022-09-06T13:35:41.735Z,1.80
2022-09-06T13:38:31.888Z,2.00
2022-09-06T13:41:16.903Z,1.90
2022-09-06T13:43:48.177Z,2.10
2022-09-06T13:46:17.276Z,1.90
2022-09-06T13:48:47.374Z,2.00
2022-09-06T13:51:15.847Z,1.88
2022-09-06T13:53:44.358Z,1.95
2022-09-06T13:56:12.818Z,1.95
2022-09-06T13:58:41.612Z,2.00
2022-09-06T14:01:10.467Z,1.70
2022-09-06T14:03:41.938Z,2.03
2022-09-06T14:06:12.597Z,1.90
2022-09-06T14:09:05.769Z,2.20
2022-09-06T14:11:29.779Z,2.30
2022-09-06T14:13:58.402Z,2.30
2022-09-06T14:16:27.202Z,2.10
2022-09-06T14:18:56.009Z,2.00
2022-09-06T14:21:26.150Z,1.87
2022-09-06T14:23:54.662Z,2.80
2022-09-06T14:26:23.532Z,2.10
2022-09-06T14:28:52.005Z,2.30
2022-09-06T14:31:22.195Z,1.70
2022-09-06T14:33:51.081Z,2.00
2022-09-06T14:36:20.799Z,2.10
2022-09-06T14:38:52.212Z,1.80
2022-09-06T14:41:21.337Z,2.20
2022-09-06T14:43:51.477Z,2.00
2022-09-06T14:46:20.596Z,2.00
2022-09-06T14:48:49.169Z,1.83
2022-09-06T14:51:21.962Z,1.93
2022-09-06T14:53:54.011Z,1.83
2022-09-06T14:56:23.031Z,2.10
2022-09-06T14:58:51.708Z,2.00
2022-09-06T15:01:22.344Z,1.73
2022-09-06T15:03:53.346Z,1.80
2022-09-06T15:06:22.968Z,1.97
2022-09-06T15:08:58.422Z,1.90
2022-09-06T15:11:34.749Z,1.63
2022-09-06T15:14:04.902Z,2.20
2022-09-06T15:16:36.641Z,1.90
2022-09-06T15:19:05.453Z,2.00
2022-09-06T15:21:34.151Z,1.93
2022-09-06T15:24:09.730Z,1.90
2022-09-06T15:26:41.798Z,2.27
2022-09-06T15:29:10.977Z,2.20
2022-09-06T15:31:40.049Z,1.97
2022-09-06T15:34:09.062Z,2.00
2022-09-06T15:36:37.983Z,2.10
2022-09-06T15:39:07.995Z,2.20
2022-09-06T15:41:39.205Z,2.10
2022-09-06T15:44:10.464Z,1.90
2022-09-06T15:46:46.761Z,2.10
2022-09-06T15:49:17.589Z,2.17
2022-09-06T15:51:46.102Z,2.13
2022-09-06T15:54:17.426Z,1.90
2022-09-06T15:56:46.113Z,2.13
2022-09-06T15:59:17.428Z,1.90
2022-09-06T16:01:46.913Z,2.10
2022-09-06T16:04:15.345Z,2.07
2022-09-06T16:06:43.838Z,2.10
2022-09-06T16:09:14.493Z,1.87
2022-09-06T16:11:45.000Z,1.80
2022-09-06T16:14:19.311Z,1.90
2022-09-06T16:16:48.351Z,2.20
2022-09-06T16:19:17.291Z,2.00
2022-09-06T16:21:45.886Z,1.80
2022-09-06T16:24:14.919Z,1.90
2022-09-06T16:26:46.898Z,1.80
2022-09-06T16:29:16.940Z,1.93
2022-09-06T16:31:45.614Z,1.80
2022-09-06T16:34:14.326Z,2.17
2022-09-06T16:36:42.822Z,2.00
2022-09-06T16:39:11.769Z,1.97
2022-09-06T16:41:42.659Z,2.20
2022-09-06T16:44:16.279Z,2.10
2022-09-06T16:46:45.586Z,2.30
2022-09-06T16:49:15.260Z,2.33
2022-09-06T16:51:44.097Z,2.07
2022-09-06T16:54:13.085Z,2.10
2022-09-06T16:56:41.561Z,2.20
2022-09-06T16:59:10.552Z,2.37
2022-09-06T17:01:42.041Z,2.20
2022-09-06T17:04:10.643Z,2.07
2022-09-06T17:06:44.415Z,2.60
2022-09-06T17:09:14.071Z,2.43
2022-09-06T17:11:42.879Z,2.33
2022-09-06T17:14:15.497Z,2.30
2022-09-06T17:17:03.556Z,2.37
2022-09-06T17:19:33.736Z,2.60
2022-09-06T17:22:22.778Z,2.47
2022-09-06T17:24:57.762Z,2.40
2022-09-06T17:27:46.029Z,2.70
2022-09-06T17:30:23.080Z,3.07
2022-09-06T17:33:04.982Z,2.60
2022-09-06T17:35:34.639Z,2.30
2022-09-06T17:38:06.600Z,2.40
2022-09-06T17:40:36.567Z,2.50
2022-09-06T17:43:11.791Z,2.93
2022-09-06T17:45:44.472Z,2.40
2022-09-06T17:48:17.129Z,2.10
2022-09-06T17:50:47.814Z,2.57
2022-09-06T17:53:22.765Z,2.53
2022-09-06T17:55:58.851Z,2.40
2022-09-06T17:58:31.076Z,2.30
2022-09-06T18:01:06.041Z,2.40
2022-09-06T18:03:43.893Z,2.30
2022-09-06T18:06:14.991Z,2.30
2022-09-06T18:08:44.969Z,2.27
2022-09-06T18:11:15.037Z,2.23
2022-09-06T18:13:43.557Z,2.13
2022-09-06T18:16:12.629Z,2.40
2022-09-06T18:18:42.515Z,2.47
2022-09-06T18:21:10.976Z,2.40
2022-09-06T18:23:39.459Z,2.40
2022-09-06T18:26:08.898Z,2.20
2022-09-06T18:28:38.109Z,2.60
2022-09-06T18:31:08.236Z,2.17
2022-09-06T18:33:37.011Z,2.20
2022-09-06T18:36:07.864Z,2.00
2022-09-06T18:38:36.355Z,2.00
2022-09-06T18:41:06.488Z,2.13
2022-09-06T18:43:36.324Z,2.53
2022-09-06T18:46:05.840Z,2.17
2022-09-06T18:48:34.509Z,2.23
2022-09-06T18:51:06.951Z,2.10
2022-09-06T18:53:35.389Z,2.10
2022-09-06T18:56:04.158Z,1.83
2022-09-06T18:58:32.745Z,2.10
2022-09-06T19:01:03.540Z,1.90
2022-09-06T19:03:32.542Z,2.30
2022-09-06T19:06:03.928Z,2.20
2022-09-06T19:11:16.958Z,2.03
2022-09-06T19:13:46.866Z,2.50
2022-09-06T19:16:15.934Z,2.30
2022-09-06T19:18:44.336Z,2.40
2022-09-06T19:21:14.392Z,2.67
2022-09-06T19:23:46.049Z,2.60
2022-09-06T19:26:17.014Z,2.50
2022-09-06T19:28:49.575Z,2.17
2022-09-06T19:31:18.525Z,2.07
2022-09-06T19:33:48.216Z,2.30
2022-09-06T19:36:16.971Z,2.30
2022-09-06T19:39:02.929Z,2.10
2022-09-06T19:41:33.086Z,1.83
2022-09-06T19:44:01.748Z,2.03
2022-09-06T19:46:30.532Z,2.10
2022-09-06T19:49:00.512Z,2.20
2022-09-06T19:51:29.166Z,2.00
2022-09-06T19:54:00.063Z,2.00
2022-09-06T19:56:31.607Z,2.23
2022-09-06T19:59:01.316Z,1.90
2022-09-06T20:01:31.244Z,2.13
2022-09-06T20:04:00.179Z,1.80
2022-09-06T20:06:28.727Z,2.10
2022-09-06T20:08:59.411Z,1.90
2022-09-06T20:11:29.491Z,2.17
2022-09-06T20:13:57.962Z,2.00
2022-09-06T20:16:26.622Z,2.00
2022-09-06T20:18:56.050Z,1.93
2022-09-06T20:21:24.560Z,1.90
2022-09-06T20:23:54.084Z,1.87
2022-09-06T20:26:24.888Z,2.10
2022-09-06T20:28:56.701Z,1.90
2022-09-06T20:31:25.404Z,1.90
2022-09-06T20:33:53.977Z,2.00
2022-09-06T20:36:22.488Z,2.00
2022-09-06T20:38:50.936Z,2.00
2022-09-06T20:41:20.668Z,2.10
2022-09-06T20:43:53.647Z,1.97
2022-09-06T20:46:23.393Z,1.87
2022-09-06T20:48:53.346Z,1.93
2022-09-06T20:51:23.385Z,1.80
2022-09-06T20:53:54.987Z,1.90
2022-09-06T20:56:24.982Z,2.00
2022-09-06T20:58:56.467Z,2.00
2022-09-06T21:01:35.541Z,1.70
2022-09-06T21:04:08.365Z,1.67
2022-09-06T21:06:39.145Z,1.90
2022-09-06T21:09:09.853Z,1.80
2022-09-06T21:11:38.581Z,1.70
2022-09-06T21:14:09.742Z,1.80
2022-09-06T21:16:47.933Z,1.83
2022-09-06T21:19:36.661Z,1.80
2022-09-06T21:22:05.177Z,1.87
2022-09-06T21:24:50.646Z,1.87
2022-09-06T21:27:19.838Z,1.77
2022-09-06T21:29:49.805Z,1.60
2022-09-06T21:32:18.290Z,2.10
2022-09-06T21:34:56.335Z,1.90
2022-09-06T21:37:40.318Z,2.13
2022-09-06T21:40:11.688Z,2.00
2022-09-06T21:42:40.176Z,1.90
2022-09-06T21:45:11.420Z,1.90
2022-09-06T21:47:40.743Z,2.37
2022-09-06T21:50:33.592Z,2.00
2022-09-06T21:53:39.795Z,1.90
2022-09-06T22:03:23.253Z,2.00
2022-09-06T22:06:08.094Z,2.00
2022-09-06T22:09:13.969Z,1.80
2022-09-06T22:12:05.534Z,2.00
2022-09-06T22:14:59.751Z,2.10
2022-09-06T22:18:34.763Z,2.07
2022-09-06T22:21:08.427Z,1.83
2022-09-06T22:23:59.960Z,1.80
2022-09-06T22:27:03.839Z,1.70
2022-09-06T22:32:50.566Z,1.70
2022-09-06T22:36:08.465Z,1.80
2022-09-06T22:38:57.841Z,1.77
2022-09-06T22:41:31.667Z,2.00
2022-09-06T22:44:09.369Z,1.90
2022-09-06T22:47:00.036Z,1.80
2022-09-06T22:49:53.332Z,1.93
2022-09-06T22:52:29.504Z,2.00
2022-09-06T22:55:01.045Z,2.00
2022-09-06T22:57:29.456Z,2.00
2022-09-06T22:59:58.068Z,1.83
2022-09-06T23:02:26.717Z,1.80
2022-09-06T23:04:56.115Z,1.90
2022-09-06T23:07:24.642Z,1.70
2022-09-06T23:09:54.636Z,1.73
2022-09-06T23:12:23.136Z,2.10
2022-09-06T23:14:51.850Z,2.10
2022-09-06T23:17:20.220Z,2.10
2022-09-06T23:19:48.719Z,2.10
2022-09-06T23:22:17.257Z,1.87
2022-09-06T23:24:46.270Z,2.07
2022-09-06T23:27:16.178Z,2.10
2022-09-06T23:29:46.038Z,1.90
2022-09-06T23:32:14.494Z,1.80
2022-09-06T23:34:43.868Z,2.00
2022-09-06T23:37:15.203Z,2.00
2022-09-06T23:39:47.368Z,1.97
2022-09-06T23:42:19.099Z,2.07
2022-09-06T23:44:47.600Z,2.20
2022-09-06T23:47:16.025Z,2.10
2022-09-06T23:49:45.317Z,2.23
2022-09-06T23:52:13.735Z,2.00
2022-09-06T23:54:42.161Z,2.20
2022-09-06T23:57:10.601Z,2.00
2022-09-06T23:59:46.100Z,2.00
